Time;durP1;ratioP1;P1;durP2;ratioP2;P2;SDS_P1;SDS_P2;PMS_P1;PMS_P2;Temp;Humidity;BMP_temperature;BMP_pressure;BME280_temperature;BME280_humidity;BME280_pressure;Samples;Min_cycle;Max_cycle;Signal;HPM_P1;HPM_P2
2023/04/29 00:01:21;;;;;;;1999.90;999.90;;;11.10;99.90;;;;;;5114768;28;20542;-74
2023/04/29 00:03:48;;;;;;;1999.90;999.90;;;11.00;99.90;;;;;;5114654;28;20039;-74
2023/04/29 00:06:13;;;;;;;1999.90;999.90;;;10.90;99.90;;;;;;5114627;28;20047;-74
2023/04/29 00:08:39;;;;;;;1999.90;999.90;;;10.90;99.90;;;;;;5095995;28;20528;-74
2023/04/29 00:11:05;;;;;;;1999.90;999.90;;;11.00;99.90;;;;;;5114736;28;20043;-74
2023/04/29 00:13:30;;;;;;;1999.90;999.90;;;11.10;99.90;;;;;;5114656;28;20039;-74
2023/04/29 00:15:56;;;;;;;1999.90;999.90;;;11.10;99.90;;;;;;5114559;27;20036;-74
2023/04/29 00:18:21;;;;;;;1999.90;999.90;;;11.10;99.90;;;;;;5099212;28;20043;-74
2023/04/29 00:20:47;;;;;;;1999.90;999.90;;;11.00;99.90;;;;;;5118315;28;20488;-74
2023/04/29 00:23:12;;;;;;;1999.90;999.90;;;11.00;99.90;;;;;;5099560;28;20554;-74
2023/04/29 00:25:38;;;;;;;1999.90;999.90;;;10.90;99.90;;;;;;5117438;28;20181;-74
2023/04/29 00:28:04;;;;;;;1999.90;999.90;;;10.80;99.90;;;;;;5117638;28;20024;-74
2023/04/29 00:30:31;;;;;;;1999.90;999.90;;;10.70;99.90;;;;;;5118177;28;20032;-74
2023/04/29 00:32:57;;;;;;;1999.90;999.90;;;10.70;99.90;;;;;;5117834;28;20047;-74
2023/04/29 00:35:22;;;;;;;1999.90;999.90;;;10.60;99.90;;;;;;5117619;28;20127;-74
2023/04/29 00:37:48;;;;;;;1999.90;999.90;;;10.60;99.90;;;;;;5117814;28;20388;-74
2023/04/29 00:40:16;;;;;;;1999.90;999.90;;;10.50;99.90;;;;;;5099374;28;20489;-74
2023/04/29 00:42:42;;;;;;;1999.90;999.90;;;10.50;99.90;;;;;;5117615;28;20036;-74
2023/04/29 00:45:10;;;;;;;1999.90;999.90;;;10.50;99.90;;;;;;5117742;28;20493;-74
2023/04/29 00:47:36;;;;;;;1999.90;999.90;;;10.50;99.90;;;;;;5117619;28;20125;-74
2023/04/29 00:50:01;;;;;;;1999.90;999.90;;;10.50;99.90;;;;;;5099142;28;20089;-75
2023/04/29 00:52:30;;;;;;;1999.90;999.90;;;10.50;99.90;;;;;;5117840;28;20032;-74
2023/04/29 00:54:56;;;;;;;1999.90;999.90;;;10.50;99.90;;;;;;5117253;28;20040;-74
2023/04/29 00:57:22;;;;;;;1999.90;999.90;;;10.50;99.90;;;;;;5117389;28;20027;-74
2023/04/29 00:59:48;;;;;;;1999.90;999.90;;;10.50;99.90;;;;;;5117578;28;20397;-74
2023/04/29 01:02:16;;;;;;;1999.90;999.90;;;10.40;99.90;;;;;;5117430;28;20043;-74
2023/04/29 01:04:42;;;;;;;1999.90;999.90;;;10.40;99.90;;;;;;5117216;28;20036;-74
2023/04/29 01:07:17;;;;;;;1999.90;999.90;;;10.30;99.90;;;;;;5117560;28;20081;-74
2023/04/29 01:09:52;;;;;;;1999.90;999.90;;;10.30;99.90;;;;;;5117395;28;20032;-74
2023/04/29 01:12:24;;;;;;;1999.90;999.90;;;10.20;99.90;;;;;;5117523;28;20032;-74
2023/04/29 01:15:03;;;;;;;1999.90;999.90;;;10.10;99.90;;;;;;5117030;28;20032;-74
2023/04/29 01:17:34;;;;;;;1999.90;999.90;;;10.00;99.90;;;;;;5116868;28;20028;-74
2023/04/29 01:20:00;;;;;;;1999.90;999.90;;;10.00;99.90;;;;;;5117177;28;20493;-74
2023/04/29 01:22:26;;;;;;;1999.90;999.90;;;10.00;99.90;;;;;;5117281;28;20036;-74
2023/04/29 01:24:52;;;;;;;1999.90;999.90;;;10.00;99.90;;;;;;5116757;28;20036;-75
2023/04/29 01:27:30;;;;;;;1999.90;999.90;;;10.00;99.90;;;;;;5098102;27;20134;-74
2023/04/29 01:30:08;;;;;;;1999.90;999.90;;;10.00;99.90;;;;;;5116773;28;20029;-74
2023/04/29 01:32:59;;;;;;;1999.90;999.90;;;10.00;99.90;;;;;;5117452;28;20501;-74
2023/04/29 01:35:32;;;;;;;1999.90;999.90;;;10.00;99.90;;;;;;5116583;28;20038;-74
2023/04/29 01:38:22;;;;;;;1999.90;999.90;;;10.00;99.90;;;;;;5116902;28;20518;-75
2023/04/29 01:40:58;;;;;;;1999.90;999.90;;;10.00;99.90;;;;;;5117191;28;20036;-74
2023/04/29 01:43:27;;;;;;;1999.90;999.90;;;10.00;99.90;;;;;;5117112;28;20094;-74
2023/04/29 01:45:56;;;;;;;1999.90;999.90;;;10.00;99.90;;;;;;5116129;28;20036;-74
2023/04/29 01:48:23;;;;;;;1999.90;999.90;;;10.10;99.90;;;;;;5097821;28;20032;-74
2023/04/29 01:50:48;;;;;;;1999.90;999.90;;;10.10;99.90;;;;;;5116676;28;20035;-74
2023/04/29 01:53:14;;;;;;;1999.90;999.90;;;10.20;99.90;;;;;;5117042;28;20501;-74
2023/04/29 01:55:40;;;;;;;1999.90;999.90;;;10.30;99.90;;;;;;5116458;28;20114;-74
2023/04/29 01:58:05;;;;;;;1999.90;999.90;;;10.30;99.90;;;;;;5116585;28;20036;-74
2023/04/29 02:00:31;;;;;;;1999.90;999.90;;;10.40;99.90;;;;;;5116465;28;20492;-74
2023/04/29 02:02:56;;;;;;;1999.90;999.90;;;10.40;99.90;;;;;;5116773;28;20036;-74
2023/04/29 02:05:22;;;;;;;1999.90;999.90;;;10.40;99.90;;;;;;5116379;28;20040;-74
2023/04/29 02:07:48;;;;;;;1999.90;999.90;;;10.50;99.90;;;;;;5097679;28;20120;-74
2023/04/29 02:10:14;;;;;;;1999.90;999.90;;;10.50;99.90;;;;;;5116689;28;20085;-74
2023/04/29 02:12:39;;;;;;;1999.90;999.90;;;10.60;99.90;;;;;;5098135;28;20125;-74
2023/04/29 02:15:06;;;;;;;1999.90;999.90;;;10.60;99.90;;;;;;5097892;28;20032;-74
2023/04/29 02:17:33;;;;;;;1999.90;999.90;;;10.70;99.90;;;;;;5116245;28;20558;-74
2023/04/29 02:19:59;;;;;;;1999.90;999.90;;;10.80;99.90;;;;;;5116409;28;20036;-74
2023/04/29 02:22:24;;;;;;;1999.90;999.90;;;10.90;99.90;;;;;;5097680;28;20036;-74
2023/04/29 02:24:50;;;;;;;1999.90;999.90;;;10.90;99.90;;;;;;5116134;28;20107;-74
2023/04/29 02:27:16;;;;;;;1999.90;999.90;;;10.90;99.90;;;;;;5116474;28;20024;-74
2023/04/29 02:29:42;;;;;;;1999.90;999.90;;;11.00;99.90;;;;;;5116344;28;20085;-74
2023/04/29 02:32:08;;;;;;;1999.90;999.90;;;11.00;99.90;;;;;;5116085;28;20085;-74
2023/04/29 02:34:33;;;;;;;1999.90;999.90;;;11.00;99.90;;;;;;5115632;28;20047;-74
2023/04/29 02:36:59;;;;;;;1999.90;999.90;;;11.10;99.90;;;;;;5116195;28;20035;-74
2023/04/29 02:39:24;;;;;;;1999.90;999.90;;;11.10;99.90;;;;;;5115608;28;20032;-74
2023/04/29 02:41:53;;;;;;;1999.90;999.90;;;11.20;99.90;;;;;;5116137;28;20386;-74
2023/04/29 02:44:19;;;;;;;1999.90;999.90;;;11.20;99.90;;;;;;5115611;28;20028;-74
2023/04/29 02:46:45;;;;;;;1999.90;999.90;;;11.20;99.90;;;;;;5115924;28;20046;-74
2023/04/29 02:49:12;;;;;;;1999.90;999.90;;;11.30;99.90;;;;;;5115719;28;20028;-74
2023/04/29 02:51:38;;;;;;;1999.90;999.90;;;11.50;99.90;;;;;;5116424;28;20457;-75
2023/04/29 02:54:04;;;;;;;1999.90;999.90;;;11.60;99.90;;;;;;5097186;28;20040;-74
2023/04/29 02:56:29;;;;;;;1999.90;999.90;;;11.60;99.90;;;;;;5116104;28;20094;-74
2023/04/29 02:58:55;;;;;;;1999.90;999.90;;;11.60;99.90;;;;;;5115776;28;20497;-74
2023/04/29 03:01:21;;;;;;;1999.90;999.90;;;11.60;99.90;;;;;;5115812;28;20067;-74
2023/04/29 03:03:47;;;;;;;1999.90;999.90;;;11.70;99.90;;;;;;5115624;28;20020;-74
2023/04/29 03:06:14;;;;;;;1999.90;999.90;;;11.70;99.90;;;;;;5115638;28;20036;-74
2023/04/29 03:08:40;;;;;;;1999.90;999.90;;;11.80;99.90;;;;;;5115426;28;20028;-74
2023/04/29 03:11:06;;;;;;;1999.90;999.90;;;11.90;99.90;;;;;;5115676;28;20043;-74
2023/04/29 03:13:31;;;;;;;1999.90;999.90;;;12.00;99.90;;;;;;5115620;28;20402;-74
2023/04/29 03:15:59;;;;;;;1999.90;999.90;;;12.00;99.90;;;;;;5115046;28;20170;-74
2023/04/29 03:18:24;;;;;;;1999.90;999.90;;;12.10;99.90;;;;;;5114744;28;20559;-74
2023/04/29 03:20:50;;;;;;;1999.90;999.90;;;12.10;99.90;;;;;;5115518;28;20039;-74
2023/04/29 03:23:16;;;;;;;1999.90;999.90;;;12.20;99.90;;;;;;5115404;28;20020;-74
2023/04/29 03:25:41;;;;;;;1999.90;999.90;;;12.20;99.90;;;;;;5115179;28;20398;-74
2023/04/29 03:28:07;;;;;;;1999.90;999.90;;;12.20;99.90;;;;;;5115693;28;20480;-74
2023/04/29 03:30:33;;;;;;;1999.90;999.90;;;12.30;99.90;;;;;;5097116;28;20085;-74
2023/04/29 03:32:58;;;;;;;1999.90;999.90;;;12.30;99.90;;;;;;5115365;28;20040;-74
2023/04/29 03:35:24;;;;;;;1999.90;999.90;;;12.30;99.90;;;;;;5115102;28;20422;-74
2023/04/29 03:37:49;;;;;;;1999.90;999.90;;;12.40;99.90;;;;;;5115082;28;20040;-74
2023/04/29 03:40:15;;;;;;;1999.90;999.90;;;12.40;99.90;;;;;;5115475;28;20656;-74
2023/04/29 03:42:41;;;;;;;1999.90;999.90;;;12.40;99.90;;;;;;5115290;28;20032;-74
2023/04/29 03:45:07;;;;;;;1999.90;999.90;;;12.40;99.90;;;;;;5115313;28;20039;-74
2023/04/29 03:47:32;;;;;;;1999.90;999.90;;;12.40;99.90;;;;;;5114780;28;20036;-74
2023/04/29 03:49:58;;;;;;;1999.90;999.90;;;12.40;99.90;;;;;;5115519;28;20397;-74
2023/04/29 03:52:24;;;;;;;1999.90;999.90;;;12.40;99.90;;;;;;5120447;27;20032;-74
2023/04/29 03:54:50;;;;;;;1999.90;999.90;;;12.40;99.90;;;;;;5103228;28;20036;-74
2023/04/29 03:57:15;;;;;;;1999.90;999.90;;;12.40;99.90;;;;;;5121855;28;20044;-74
2023/04/29 03:59:41;;;;;;;1999.90;999.90;;;12.40;99.90;;;;;;5103071;28;20045;-74
2023/04/29 04:02:07;;;;;;;1999.90;999.90;;;12.40;99.90;;;;;;5121698;28;20485;-74
2023/04/29 04:04:33;;;;;;;1999.90;999.90;;;12.40;99.90;;;;;;5121627;28;20020;-74
2023/04/29 04:06:58;;;;;;;1999.90;999.90;;;12.40;99.90;;;;;;5121876;28;20043;-74
2023/04/29 04:09:24;;;;;;;1999.90;999.90;;;12.40;99.90;;;;;;5121480;28;20025;-74
2023/04/29 04:11:49;;;;;;;1999.90;999.90;;;12.40;99.90;;;;;;5102963;28;20031;-74
2023/04/29 04:14:15;;;;;;;1999.90;999.90;;;12.30;99.90;;;;;;5121419;28;20024;-74
2023/04/29 04:16:40;;;;;;;1999.90;999.90;;;12.30;99.90;;;;;;5121501;28;20032;-74
2023/04/29 04:19:06;;;;;;;1999.90;999.90;;;12.30;99.90;;;;;;5139438;22;20096;-74
2023/04/29 04:21:31;;;;;;;1999.90;999.90;;;12.30;99.90;;;;;;5141921;27;20442;-74
2023/04/29 04:23:57;;;;;;;1999.90;999.90;;;12.30;99.90;;;;;;5122845;27;20472;-74
2023/04/29 04:26:22;;;;;;;1999.90;999.90;;;12.30;99.90;;;;;;5142059;27;20039;-74
2023/04/29 04:28:48;;;;;;;1999.90;999.90;;;12.20;99.90;;;;;;5141768;27;20067;-74
2023/04/29 04:31:13;;;;;;;1999.90;999.90;;;12.20;99.90;;;;;;5142197;27;20110;-74
2023/04/29 04:33:39;;;;;;;1999.90;999.90;;;12.10;99.90;;;;;;5142153;27;20027;-74
2023/04/29 04:36:06;;;;;;;1999.90;999.90;;;12.10;99.90;;;;;;5141725;27;20080;-74
2023/04/29 04:38:31;;;;;;;1999.90;999.90;;;12.10;99.90;;;;;;5141932;27;20036;-75
2023/04/29 04:40:57;;;;;;;1999.90;999.90;;;12.00;99.90;;;;;;5141975;27;20032;-74
2023/04/29 04:43:23;;;;;;;1999.90;999.90;;;11.90;99.90;;;;;;5141726;27;20039;-74
2023/04/29 04:45:49;;;;;;;1999.90;999.90;;;11.80;99.90;;;;;;5122804;27;20036;-74
2023/04/29 04:48:14;;;;;;;1999.90;999.90;;;11.80;99.90;;;;;;5141732;27;20031;-74
2023/04/29 04:50:40;;;;;;;1999.90;999.90;;;11.70;99.90;;;;;;5141587;27;20035;-74
2023/04/29 04:53:05;;;;;;;1999.90;999.90;;;11.60;99.90;;;;;;5141496;27;20031;-74
2023/04/29 04:55:32;;;;;;;1999.90;999.90;;;11.60;99.90;;;;;;5141395;27;20033;-74
2023/04/29 04:57:58;;;;;;;1999.90;999.90;;;11.60;99.90;;;;;;5141518;27;20473;-74
2023/04/29 05:00:23;;;;;;;1999.90;999.90;;;11.70;99.90;;;;;;5141683;27;20035;-74
2023/04/29 05:02:49;;;;;;;1999.90;999.90;;;11.80;99.90;;;;;;5139301;27;20023;-74
2023/04/29 05:05:14;;;;;;;1999.90;999.90;;;11.90;99.90;;;;;;5137969;27;20040;-74
2023/04/29 05:07:40;;;;;;;1999.90;999.90;;;11.80;99.90;;;;;;5119300;27;20036;-74
2023/04/29 05:10:07;;;;;;;1999.90;999.90;;;11.70;99.90;;;;;;5138256;27;20108;-74
2023/04/29 05:12:34;;;;;;;1999.90;999.90;;;11.60;99.90;;;;;;5138282;27;20902;-74
2023/04/29 05:14:59;;;;;;;1999.90;999.90;;;11.50;99.90;;;;;;5137881;27;20492;-74
2023/04/29 05:17:25;;;;;;;1999.90;999.90;;;11.30;99.90;;;;;;5119314;27;20043;-74
2023/04/29 05:19:51;;;;;;;1999.90;999.90;;;11.20;99.90;;;;;;5137766;27;20035;-74
2023/04/29 05:22:16;;;;;;;1999.90;999.90;;;11.20;99.90;;;;;;5137775;27;20035;-74
2023/04/29 05:24:42;;;;;;;1999.90;999.90;;;11.20;99.90;;;;;;5119087;27;20031;-74
2023/04/29 05:27:07;;;;;;;1999.90;999.90;;;11.10;99.90;;;;;;5119292;27;20062;-74
2023/04/29 05:29:33;;;;;;;1999.90;999.90;;;11.10;99.90;;;;;;5137485;27;20358;-74
2023/04/29 05:31:59;;;;;;;1999.90;999.90;;;11.10;99.90;;;;;;5137615;27;20066;-74
2023/04/29 05:34:25;;;;;;;1999.90;999.90;;;11.20;99.90;;;;;;5137497;27;20028;-74
2023/04/29 05:36:50;;;;;;;1999.90;999.90;;;11.20;99.90;;;;;;5137651;27;20039;-74
2023/04/29 05:39:16;;;;;;;1999.90;999.90;;;11.40;99.90;;;;;;5137336;27;20024;-74
2023/04/29 05:41:42;;;;;;;1999.90;999.90;;;11.60;99.90;;;;;;5137687;27;20039;-74
2023/04/29 05:44:08;;;;;;;1999.90;999.90;;;11.80;99.90;;;;;;5118525;27;20501;-74
2023/04/29 05:46:33;;;;;;;1999.90;999.90;;;12.10;99.90;;;;;;5137308;27;20040;-74
2023/04/29 05:48:59;;;;;;;1999.90;999.90;;;12.20;99.90;;;;;;5137302;27;20035;-74
2023/04/29 05:51:25;;;;;;;1999.90;999.90;;;12.20;99.90;;;;;;5137368;27;20073;-74
2023/04/29 05:53:50;;;;;;;1999.90;999.90;;;12.30;99.90;;;;;;5136777;27;20054;-74
2023/04/29 05:56:16;;;;;;;1999.90;999.90;;;12.30;99.90;;;;;;5119067;27;20485;-74
2023/04/29 05:58:42;;;;;;;1999.90;999.90;;;12.30;99.90;;;;;;5118804;27;20111;-74
2023/04/29 06:01:08;;;;;;;1999.90;999.90;;;12.20;99.90;;;;;;5131374;27;20447;-74
2023/04/29 06:03:33;;;;;;;1999.90;999.90;;;12.10;99.90;;;;;;5118483;27;20036;-74
2023/04/29 06:05:59;;;;;;;1999.90;999.90;;;12.10;99.90;;;;;;5117058;28;20047;-74
2023/04/29 06:08:25;;;;;;;1999.90;999.90;;;12.00;99.90;;;;;;5116990;28;20024;-74
2023/04/29 06:10:51;;;;;;;1999.90;999.90;;;12.00;99.90;;;;;;5117364;28;20035;-74
2023/04/29 06:13:17;;;;;;;1999.90;999.90;;;12.10;99.90;;;;;;5117876;28;20047;-74
2023/04/29 06:15:43;;;;;;;1999.90;999.90;;;12.10;99.90;;;;;;5116212;28;20053;-74
2023/04/29 06:18:09;;;;;;;1999.90;999.90;;;12.10;99.90;;;;;;5097474;28;20035;-74
2023/04/29 06:20:34;;;;;;;1999.90;999.90;;;12.10;99.90;;;;;;5116842;28;20523;-74
2023/04/29 06:23:00;;;;;;;1999.90;999.90;;;12.30;99.90;;;;;;5116503;28;20035;-75
2023/04/29 06:25:25;;;;;;;1999.90;999.90;;;12.30;99.90;;;;;;5097680;28;20036;-76
2023/04/29 06:27:51;;;;;;;1999.90;999.90;;;12.30;99.90;;;;;;5116816;28;20780;-77
2023/04/29 06:30:16;;;;;;;1999.90;999.90;;;12.30;99.90;;;;;;5116421;28;20330;-77
2023/04/29 06:32:42;;;;;;;1999.90;999.90;;;12.40;99.90;;;;;;5097692;28;20064;-76
2023/04/29 06:35:08;;;;;;;1999.90;999.90;;;12.50;99.90;;;;;;5115702;28;20074;-76
2023/04/29 06:37:33;;;;;;;1999.90;999.90;;;12.50;99.90;;;;;;5097145;28;20074;-76
2023/04/29 06:39:59;;;;;;;1999.90;999.90;;;12.60;99.90;;;;;;5116435;28;20453;-77
2023/04/29 06:42:24;;;;;;;1999.90;999.90;;;12.80;99.90;;;;;;5118417;28;20031;-77
2023/04/29 06:44:50;;;;;;;1999.90;999.90;;;13.00;99.90;;;;;;5116998;28;20043;-76
2023/04/29 06:47:15;;;;;;;1999.90;999.90;;;13.10;99.90;;;;;;5117146;28;20033;-78
2023/04/29 06:49:42;;;;;;;1999.90;999.90;;;13.30;99.90;;;;;;5098459;28;20035;-76
2023/04/29 06:52:08;;;;;;;1999.90;999.90;;;13.40;99.90;;;;;;5097632;28;20578;-77
2023/04/29 06:54:34;;;;;;;1999.90;999.90;;;13.60;99.90;;;;;;5115859;28;20036;-74
2023/04/29 06:57:01;;;;;;;1999.90;999.90;;;13.50;99.90;;;;;;5116095;28;20367;-74
2023/04/29 06:59:26;;;;;;;1999.90;999.90;;;13.60;99.90;;;;;;5097531;28;20067;-75
2023/04/29 07:01:52;;;;;;;1999.90;999.90;;;13.30;99.90;;;;;;5096499;28;20121;-76
2023/04/29 07:04:17;;;;;;;1999.90;999.90;;;13.20;99.90;;;;;;5115370;28;20040;-76
2023/04/29 07:06:45;;;;;;;1999.90;999.90;;;13.10;99.90;;;;;;5096996;28;20436;-75
2023/04/29 07:09:12;;;;;;;1999.90;999.90;;;13.10;99.90;;;;;;5115355;28;20050;-75
2023/04/29 07:11:38;;;;;;;1999.90;999.90;;;13.20;99.90;;;;;;5098385;28;20055;-78
2023/04/29 07:14:04;;;;;;;1999.90;999.90;;;13.20;99.90;;;;;;5116268;28;20036;-77
2023/04/29 07:16:29;;;;;;;1999.90;999.90;;;13.10;99.90;;;;;;5097880;28;20071;-77
2023/04/29 07:18:55;;;;;;;1999.90;999.90;;;13.20;99.90;;;;;;5115582;27;20036;-76
2023/04/29 07:21:20;;;;;;;1999.90;999.90;;;13.20;99.90;;;;;;5115401;28;20086;-76
2023/04/29 07:23:46;;;;;;;1999.90;999.90;;;13.10;99.90;;;;;;5115364;28;20098;-76
2023/04/29 07:26:14;;;;;;;1999.90;999.90;;;13.10;99.90;;;;;;5096416;28;20397;-76
2023/04/29 07:28:41;;;;;;;1999.90;999.90;;;13.10;99.90;;;;;;5115216;28;20032;-76
2023/04/29 07:31:07;;;;;;;1999.90;999.90;;;13.00;99.90;;;;;;5116171;28;20127;-76
2023/04/29 07:33:34;;;;;;;1999.90;999.90;;;13.20;99.90;;;;;;5115275;27;20115;-77
2023/04/29 07:35:59;;;;;;;1999.90;999.90;;;13.10;99.90;;;;;;5096566;28;20039;-77
2023/04/29 07:38:25;;;;;;;1999.90;999.90;;;13.20;99.90;;;;;;5115236;28;20512;-78
2023/04/29 07:40:51;;;;;;;1999.90;999.90;;;13.20;99.90;;;;;;5115244;28;20044;-76
2023/04/29 07:43:17;;;;;;;1999.90;999.90;;;13.10;99.90;;;;;;5096976;28;20037;-76
2023/04/29 07:45:42;;;;;;;1999.90;999.90;;;13.10;99.90;;;;;;5096512;28;20036;-76
2023/04/29 07:48:08;;;;;;;1999.90;999.90;;;13.10;99.90;;;;;;5114804;28;20524;-76
2023/04/29 07:50:35;;;;;;;1999.90;999.90;;;13.30;99.90;;;;;;5115237;28;20036;-77
2023/04/29 07:53:01;;;;;;;1999.90;999.90;;;13.60;99.90;;;;;;5115086;28;20028;-77
2023/04/29 07:55:28;;;;;;;1999.90;999.90;;;13.90;99.90;;;;;;5096293;28;20061;-79
2023/04/29 07:57:55;;;;;;;1999.90;999.90;;;14.30;99.90;;;;;;5096631;28;20039;-79
2023/04/29 08:00:21;;;;;;;1999.90;999.90;;;14.50;99.90;;;;;;5096495;28;20170;-75
2023/04/29 08:02:53;;;;;;;1999.90;999.90;;;14.50;99.90;;;;;;5114923;28;20777;-75
2023/04/29 08:05:22;;;;;;;1999.90;999.90;;;14.50;99.90;;;;;;5114607;28;20097;-74
2023/04/29 08:07:48;;;;;;;1999.90;999.90;;;14.60;99.90;;;;;;5114638;28;20035;-73
2023/04/29 08:10:14;;;;;;;1999.90;999.90;;;14.90;99.90;;;;;;5114975;28;20028;-73
2023/04/29 08:12:40;;;;;;;1999.90;999.90;;;15.10;99.90;;;;;;5096314;28;20038;-74
2023/04/29 08:15:09;;;;;;;1999.90;999.90;;;15.10;99.90;;;;;;5096114;28;20400;-74
2023/04/29 08:17:37;;;;;;;1999.90;999.90;;;15.10;99.90;;;;;;5114470;28;20040;-74
2023/04/29 08:20:03;;;;;;;1999.90;999.90;;;15.10;99.90;;;;;;5114834;28;20039;-74
2023/04/29 08:22:28;;;;;;;1999.90;999.90;;;14.90;99.90;;;;;;5114717;28;20047;-74
2023/04/29 08:24:54;;;;;;;1999.90;999.90;;;14.80;99.90;;;;;;5114086;28;20028;-75
2023/04/29 08:27:20;;;;;;;1999.90;999.90;;;14.50;99.90;;;;;;5114704;28;20056;-73
2023/04/29 08:29:46;;;;;;;1999.90;999.90;;;14.20;99.90;;;;;;5114417;28;20051;-74
2023/04/29 08:32:12;;;;;;;1999.90;999.90;;;14.10;99.90;;;;;;5114586;28;20111;-74
2023/04/29 08:34:38;;;;;;;1999.90;999.90;;;14.00;99.90;;;;;;5095685;28;20556;-74
2023/04/29 08:37:03;;;;;;;1999.90;999.90;;;14.00;99.90;;;;;;5114864;27;20032;-76
2023/04/29 08:39:30;;;;;;;1999.90;999.90;;;14.20;99.90;;;;;;5117954;28;20027;-76
2023/04/29 08:41:56;;;;;;;1999.90;999.90;;;14.40;99.90;;;;;;5099300;28;20045;-76
2023/04/29 08:44:22;;;;;;;1999.90;999.90;;;14.80;99.90;;;;;;5117767;28;20028;-76
2023/04/29 08:46:49;;;;;;;1999.90;999.90;;;15.10;99.90;;;;;;5117666;28;20059;-76
2023/04/29 08:49:15;;;;;;;1999.90;999.90;;;15.30;99.90;;;;;;5117868;28;20040;-76
2023/04/29 08:51:46;;;;;;;1999.90;999.90;;;15.80;99.90;;;;;;5118193;28;20064;-78
2023/04/29 08:54:12;;;;;;;1999.90;999.90;;;16.00;99.90;;;;;;5098992;28;20039;-75
2023/04/29 08:56:38;;;;;;;1999.90;999.90;;;16.00;99.90;;;;;;5117623;28;20401;-74
2023/04/29 08:59:07;;;;;;;1999.90;999.90;;;16.20;99.90;;;;;;5117125;28;20032;-75
2023/04/29 09:01:37;;;;;;;1999.90;999.90;;;16.00;99.90;;;;;;5099094;28;20066;-75
2023/04/29 09:04:26;;;;;;;1999.90;999.90;;;15.90;99.90;;;;;;5117214;28;20043;-75
2023/04/29 09:06:56;;;;;;;1999.90;999.90;;;15.90;99.90;;;;;;5117257;28;20035;-74
2023/04/29 09:09:23;;;;;;;1999.90;999.90;;;15.70;99.90;;;;;;5098809;28;20032;-75
2023/04/29 09:11:49;;;;;;;1999.90;999.90;;;15.50;99.90;;;;;;5117416;28;20079;-75
2023/04/29 09:14:15;;;;;;;1999.90;999.90;;;15.50;99.90;;;;;;5117362;28;20477;-75
2023/04/29 09:16:41;;;;;;;1999.90;999.90;;;15.30;99.90;;;;;;5117467;28;20083;-75
2023/04/29 09:19:06;;;;;;;1999.90;999.90;;;15.50;99.90;;;;;;5116801;28;20040;-75
2023/04/29 09:21:32;;;;;;;1999.90;999.90;;;15.50;99.90;;;;;;5117445;28;20509;-75
2023/04/29 09:24:00;;;;;;;1999.90;999.90;;;15.90;99.90;;;;;;5116885;28;20840;-75
2023/04/29 09:26:27;;;;;;;1999.90;999.90;;;15.90;99.90;;;;;;5117054;28;20032;-75
2023/04/29 09:29:06;;;;;;;1999.90;999.90;;;15.90;99.90;;;;;;5117457;27;20043;-75
2023/04/29 09:31:32;;;;;;;1999.90;999.90;;;16.00;99.90;;;;;;5133418;27;20035;-77
2023/04/29 09:33:58;;;;;;;1999.90;999.90;;;15.90;99.90;;;;;;5119905;27;20028;-76
2023/04/29 09:36:36;;;;;;;1999.90;999.90;;;16.00;99.90;;;;;;5111821;28;20040;-76
2023/04/29 09:39:04;;;;;;;1999.90;999.90;;;16.50;99.90;;;;;;5099883;27;20039;-78
2023/04/29 09:41:30;;;;;;;1999.90;999.90;;;16.80;99.90;;;;;;5103296;28;20032;-81
2023/04/29 09:44:04;;;;;;;1999.90;999.90;;;16.80;99.90;;;;;;5103409;28;20032;-79
2023/04/29 09:46:31;;;;;;;1999.90;999.90;;;17.00;99.90;;;;;;5117180;27;20035;-78
2023/04/29 09:48:57;;;;;;;1999.90;999.90;;;17.20;99.90;;;;;;5120299;27;20036;-78
2023/04/29 09:51:23;;;;;;;1999.90;999.90;;;17.00;99.90;;;;;;5102043;28;20066;-78
2023/04/29 09:53:49;;;;;;;1999.90;999.90;;;16.90;99.90;;;;;;5118605;28;20028;-78
2023/04/29 09:56:15;;;;;;;1999.90;999.90;;;17.10;99.90;;;;;;5098279;28;20040;-76
2023/04/29 09:58:41;;;;;;;1999.90;999.90;;;16.90;99.90;;;;;;5098977;28;20028;-77
2023/04/29 10:01:08;;;;;;;1999.90;999.90;;;17.00;99.90;;;;;;5097985;28;20040;-75
2023/04/29 10:03:36;;;;;;;1999.90;999.90;;;16.90;99.90;;;;;;5116459;28;20031;-74
2023/04/29 10:06:03;;;;;;;1999.90;999.90;;;16.70;99.90;;;;;;5117713;27;20065;-74
2023/04/29 10:08:30;;;;;;;1999.90;999.90;;;16.40;99.90;;;;;;5120323;27;20042;-81
2023/04/29 10:11:00;;;;;;;1999.90;999.90;;;16.30;99.90;;;;;;5139065;27;20039;-76
2023/04/29 10:13:27;;;;;;;1999.90;999.90;;;16.00;99.90;;;;;;5120165;27;20034;-78
2023/04/29 10:16:14;;;;;;;1999.90;999.90;;;16.10;99.90;;;;;;5145481;27;20031;-78
2023/04/29 10:18:43;;;;;;;1999.90;999.90;;;16.30;99.90;;;;;;5146986;27;20100;-77
2023/04/29 10:21:10;;;;;;;1999.90;999.90;;;16.20;99.90;;;;;;5118661;27;20492;-80
2023/04/29 10:23:36;;;;;;;1999.90;999.90;;;15.90;99.90;;;;;;5119160;27;20510;-77
2023/04/29 10:26:02;;;;;;;1999.90;999.90;;;15.70;99.90;;;;;;5135783;27;20117;-78
2023/04/29 10:28:31;;;;;;;1999.90;999.90;;;15.70;99.90;;;;;;5118719;28;20265;-81
2023/04/29 10:31:03;;;;;;;1999.90;999.90;;;15.90;99.90;;;;;;5118864;28;20047;-79
2023/04/29 10:33:32;;;;;;;1999.90;999.90;;;16.00;99.90;;;;;;5107767;28;20489;-78
2023/04/29 10:35:59;;;;;;;1999.90;999.90;;;16.10;99.90;;;;;;5126294;27;20409;-77
2023/04/29 10:38:29;;;;;;;1999.90;999.90;;;16.10;99.90;;;;;;5137754;27;20020;-77
2023/04/29 10:40:57;;;;;;;1999.90;999.90;;;16.10;99.90;;;;;;5118300;27;20043;-77
2023/04/29 10:43:26;;;;;;;1999.90;999.90;;;16.50;99.90;;;;;;5137586;27;20027;-77
2023/04/29 10:46:20;;;;;;;1999.90;999.90;;;16.60;99.90;;;;;;5118976;27;20040;-78
2023/04/29 10:48:47;;;;;;;1999.90;999.90;;;16.70;99.90;;;;;;5118812;27;20023;-79
2023/04/29 10:51:34;;;;;;;1999.90;999.90;;;16.70;99.90;;;;;;5141256;27;20042;-78
2023/04/29 10:54:02;;;;;;;1999.90;999.90;;;16.90;99.90;;;;;;5118357;27;20149;-76
2023/04/29 10:56:41;;;;;;;1999.90;999.90;;;17.10;99.90;;;;;;5139129;27;20042;-78
2023/04/29 10:59:14;;;;;;;1999.90;999.90;;;16.90;99.90;;;;;;5118282;27;20027;-78
2023/04/29 11:01:45;;;;;;;1999.90;999.90;;;17.00;99.90;;;;;;5106762;27;20523;-77
2023/04/29 11:04:11;;;;;;;1999.90;999.90;;;17.10;99.90;;;;;;5117854;28;20060;-77
2023/04/29 11:06:42;;;;;;;1999.90;999.90;;;17.10;99.90;;;;;;5115567;28;20044;-77
2023/04/29 11:09:11;;;;;;;1999.90;999.90;;;17.00;99.90;;;;;;5116147;28;20032;-77
2023/04/29 11:11:45;;;;;;;1999.90;999.90;;;16.80;99.90;;;;;;5116667;28;20035;-77
2023/04/29 11:14:12;;;;;;;1999.90;999.90;;;16.70;99.90;;;;;;5098160;28;20089;-77
2023/04/29 11:16:47;;;;;;;1999.90;999.90;;;16.80;99.90;;;;;;5097996;28;20032;-77
2023/04/29 11:19:14;;;;;;;1999.90;999.90;;;16.90;99.90;;;;;;5118624;28;20028;-78
2023/04/29 11:21:40;;;;;;;1999.90;999.90;;;17.00;99.90;;;;;;5118278;28;20035;-79
2023/04/29 11:24:06;;;;;;;1999.90;999.90;;;17.00;99.90;;;;;;5100460;28;20119;-79
2023/04/29 11:26:34;;;;;;;1999.90;999.90;;;17.40;99.90;;;;;;5098008;28;20040;-76
2023/04/29 11:28:59;;;;;;;1999.90;999.90;;;17.50;99.90;;;;;;5116787;28;20075;-78
2023/04/29 11:31:29;;;;;;;1999.90;999.90;;;17.70;99.90;;;;;;5102830;28;20509;-79
2023/04/29 11:33:55;;;;;;;1999.90;999.90;;;18.20;99.90;;;;;;5116447;28;20590;-78
2023/04/29 11:36:21;;;;;;;1999.90;999.90;;;18.30;99.90;;;;;;5099970;28;20086;-80
2023/04/29 11:38:46;;;;;;;1999.90;999.90;;;18.10;99.90;;;;;;5117964;28;20024;-80
2023/04/29 11:41:14;;;;;;;1999.90;999.90;;;17.90;99.90;;;;;;5119120;28;20044;-83
2023/04/29 11:43:40;;;;;;;1999.90;999.90;;;17.80;99.90;;;;;;5099819;28;20038;-80
2023/04/29 11:46:12;;;;;;;1999.90;999.90;;;18.00;99.90;;;;;;5100159;28;20050;-84
2023/04/29 11:48:48;;;;;;;1999.90;999.90;;;18.20;99.90;;;;;;5129321;27;20023;-77
2023/04/29 11:51:21;;;;;;;1999.90;999.90;;;18.00;99.90;;;;;;5126132;27;20040;-81
2023/04/29 11:53:47;;;;;;;1999.90;999.90;;;18.00;99.90;;;;;;5105785;27;20493;-77
2023/04/29 11:56:12;;;;;;;1999.90;999.90;;;17.90;99.90;;;;;;5136364;27;20039;-78
2023/04/29 11:58:38;;;;;;;1999.90;999.90;;;18.00;99.90;;;;;;5136660;27;20028;-77